Time;durP1;ratioP1;P1;durP2;ratioP2;P2;SDS_P1;SDS_P2;PMS_P1;PMS_P2;Temp;Humidity;BMP_temperature;BMP_pressure;BME280_temperature;BME280_humidity;BME280_pressure;Samples;Min_cycle;Max_cycle;Signal;HPM_P1;HPM_P2
2022/06/09 00:00:28;;;;;;;41.00;23.47;;;15.80;99.90;;;;;;5088224;28;20235;-67
2022/06/09 00:03:17;;;;;;;40.60;24.37;;;15.80;99.90;;;;;;5090361;28;20207;-67
2022/06/09 00:06:06;;;;;;;35.77;22.10;;;15.90;99.90;;;;;;5088438;28;20216;-67
2022/06/09 00:08:53;;;;;;;38.20;21.20;;;16.00;99.90;;;;;;5084594;28;20230;-67
2022/06/09 00:11:42;;;;;;;32.63;20.50;;;16.20;99.90;;;;;;5089045;28;20252;-67
2022/06/09 00:14:29;;;;;;;30.93;20.40;;;16.20;99.90;;;;;;5089774;28;20231;-67
2022/06/09 00:17:16;;;;;;;29.97;20.10;;;16.20;99.90;;;;;;5087305;28;20278;-67
2022/06/09 00:20:03;;;;;;;26.83;18.30;;;16.30;99.90;;;;;;5088301;28;20240;-67
2022/06/09 00:22:52;;;;;;;30.00;19.23;;;16.30;99.90;;;;;;5083474;28;20195;-67
2022/06/09 00:25:39;;;;;;;29.50;18.80;;;16.30;99.90;;;;;;5088950;28;20688;-67
2022/06/09 00:28:26;;;;;;;31.67;18.20;;;16.30;99.90;;;;;;5088596;28;20195;-68
2022/06/09 00:31:13;;;;;;;31.33;19.00;;;16.40;99.90;;;;;;5088542;28;20228;-67
2022/06/09 00:34:00;;;;;;;28.67;18.57;;;16.40;99.90;;;;;;5088571;28;20236;-67
2022/06/09 00:36:48;;;;;;;30.13;18.33;;;16.40;99.90;;;;;;5088679;28;20204;-67
2022/06/09 00:39:36;;;;;;;30.20;16.47;;;16.40;99.90;;;;;;5087942;28;20682;-67
2022/06/09 00:42:23;;;;;;;31.20;17.73;;;16.20;99.90;;;;;;5088486;28;20237;-68
2022/06/09 00:45:28;;;;;;;32.57;16.60;;;16.20;99.90;;;;;;5086445;28;20196;-67
2022/06/09 00:48:32;;;;;;;30.37;15.10;;;16.20;99.90;;;;;;5087869;28;20272;-68
2022/06/09 00:51:38;;;;;;;24.07;14.03;;;16.30;99.90;;;;;;5088806;28;20252;-68
2022/06/09 00:54:27;;;;;;;26.50;13.33;;;16.10;99.90;;;;;;5086700;28;20211;-69
2022/06/09 00:57:17;;;;;;;23.67;11.80;;;16.00;99.90;;;;;;5088286;28;20200;-68
2022/06/09 01:00:06;;;;;;;18.80;12.60;;;16.00;99.90;;;;;;5082016;28;20761;-69
2022/06/09 01:02:54;;;;;;;44.63;13.13;;;16.00;99.90;;;;;;5085843;28;20200;-69
2022/06/09 01:05:41;;;;;;;23.53;10.77;;;16.00;99.90;;;;;;5087608;28;20206;-70
2022/06/09 01:08:29;;;;;;;27.70;10.37;;;16.00;99.90;;;;;;5087846;28;20207;-70
2022/06/09 01:11:16;;;;;;;18.87;8.97;;;16.00;99.90;;;;;;5086995;28;20281;-70
2022/06/09 01:14:04;;;;;;;10.77;5.40;;;16.00;99.90;;;;;;5088807;28;20581;-70
2022/06/09 01:16:57;;;;;;;8.20;5.07;;;16.00;99.90;;;;;;5085525;28;20666;-70
2022/06/09 01:20:03;;;;;;;7.50;4.90;;;16.00;99.90;;;;;;5082430;28;20212;-70
2022/06/09 01:23:07;;;;;;;9.60;5.03;;;16.00;99.90;;;;;;5083381;28;20974;-70
2022/06/09 01:26:15;;;;;;;6.23;4.30;;;16.10;99.90;;;;;;5083954;28;20284;-70
2022/06/09 01:29:18;;;;;;;6.13;3.80;;;16.10;99.90;;;;;;5083798;28;20331;-70
2022/06/09 01:32:09;;;;;;;6.50;4.80;;;16.00;99.90;;;;;;5088664;28;20201;-70
2022/06/09 01:35:04;;;;;;;7.27;5.43;;;16.10;99.90;;;;;;5089290;28;20282;-69
2022/06/09 01:37:53;;;;;;;14.37;6.53;;;16.00;99.90;;;;;;5089203;28;20223;-69
2022/06/09 01:40:40;;;;;;;11.87;7.77;;;16.00;99.90;;;;;;5088545;28;20930;-69
2022/06/09 01:43:27;;;;;;;9.43;6.60;;;16.00;99.90;;;;;;5088870;28;20227;-69
2022/06/09 01:46:19;;;;;;;12.63;6.80;;;15.90;99.90;;;;;;5089181;28;20372;-69
2022/06/09 01:49:11;;;;;;;7.10;5.97;;;15.90;99.90;;;;;;5088205;28;20203;-69
2022/06/09 01:51:58;;;;;;;7.30;6.03;;;15.90;99.90;;;;;;5088776;28;20570;-69
2022/06/09 01:54:45;;;;;;;7.17;5.07;;;15.90;99.90;;;;;;5087743;28;20288;-69
2022/06/09 01:57:33;;;;;;;8.50;5.50;;;15.90;99.90;;;;;;5086104;28;20205;-69
2022/06/09 02:00:20;;;;;;;8.03;5.83;;;15.80;99.90;;;;;;5083285;28;20314;-69
2022/06/09 02:03:09;;;;;;;8.47;5.80;;;15.80;99.90;;;;;;5092417;28;20202;-69
2022/06/09 02:05:58;;;;;;;7.30;5.87;;;15.70;99.90;;;;;;5092910;28;20199;-69
2022/06/09 02:08:45;;;;;;;7.80;5.70;;;15.70;99.90;;;;;;5092638;28;20208;-69
2022/06/09 02:11:32;;;;;;;8.87;5.47;;;15.70;99.90;;;;;;5086341;28;20674;-69
2022/06/09 02:14:19;;;;;;;10.33;5.03;;;15.70;99.90;;;;;;5084745;28;20235;-69
2022/06/09 02:17:07;;;;;;;7.13;4.90;;;15.60;99.90;;;;;;5092592;28;20658;-69
2022/06/09 02:19:54;;;;;;;5.53;4.60;;;15.60;99.90;;;;;;5091065;28;20358;-69
2022/06/09 02:22:43;;;;;;;5.80;4.17;;;15.50;99.90;;;;;;5091133;28;20278;-69
2022/06/09 02:25:30;;;;;;;8.53;3.73;;;15.50;99.90;;;;;;5089239;28;20645;-69
2022/06/09 02:28:17;;;;;;;5.20;3.53;;;15.40;99.90;;;;;;5090105;28;20198;-69
2022/06/09 02:31:04;;;;;;;8.00;4.33;;;15.40;99.90;;;;;;5089447;28;20271;-69
2022/06/09 02:33:51;;;;;;;6.00;4.20;;;15.40;99.90;;;;;;5087967;28;20282;-69
2022/06/09 02:36:38;;;;;;;4.90;4.10;;;15.40;99.90;;;;;;5090684;28;20198;-69
2022/06/09 02:39:27;;;;;;;4.37;3.97;;;15.40;99.90;;;;;;5083997;28;20647;-69
2022/06/09 02:42:14;;;;;;;7.73;4.10;;;15.40;99.90;;;;;;5084709;28;20203;-69
2022/06/09 02:45:02;;;;;;;4.50;3.97;;;15.30;99.90;;;;;;5091695;28;20245;-69
2022/06/09 02:47:50;;;;;;;5.33;4.10;;;15.30;99.90;;;;;;5090436;28;20201;-69
2022/06/09 02:50:37;;;;;;;6.37;4.10;;;15.40;99.90;;;;;;5088723;28;20321;-69
2022/06/09 02:53:24;;;;;;;7.00;3.90;;;15.30;99.90;;;;;;5088568;28;20238;-69
2022/06/09 02:56:13;;;;;;;4.77;3.40;;;15.30;99.90;;;;;;5091394;28;20253;-70
2022/06/09 02:59:00;;;;;;;4.57;3.47;;;15.20;99.90;;;;;;5089415;28;20211;-69
2022/06/09 03:01:47;;;;;;;5.10;4.00;;;15.20;99.90;;;;;;5090917;28;20224;-69
2022/06/09 03:04:34;;;;;;;6.03;3.97;;;15.10;99.90;;;;;;5088379;28;20662;-69
2022/06/09 03:07:24;;;;;;;6.83;3.93;;;15.10;99.90;;;;;;5085674;28;20192;-70
2022/06/09 03:10:11;;;;;;;5.27;3.77;;;15.00;99.90;;;;;;5083117;28;20202;-69
2022/06/09 03:12:59;;;;;;;4.53;4.13;;;15.00;99.90;;;;;;5092808;28;20546;-70
2022/06/09 03:15:47;;;;;;;5.80;4.60;;;15.00;99.90;;;;;;5087517;28;20288;-69
2022/06/09 03:18:34;;;;;;;5.43;4.10;;;14.90;99.90;;;;;;5086530;28;20210;-70
2022/06/09 03:21:22;;;;;;;7.37;4.40;;;14.90;99.90;;;;;;5083662;28;20655;-70
2022/06/09 03:24:09;;;;;;;6.37;4.53;;;14.90;99.90;;;;;;5092142;28;20204;-70
2022/06/09 03:26:56;;;;;;;6.00;3.77;;;14.90;99.90;;;;;;5087081;28;20229;-70
2022/06/09 03:29:45;;;;;;;5.10;4.03;;;14.90;99.90;;;;;;5086190;28;20278;-69
2022/06/09 03:32:32;;;;;;;7.23;4.50;;;14.90;99.90;;;;;;5091750;28;20198;-70
2022/06/09 03:35:19;;;;;;;5.13;4.10;;;14.90;99.90;;;;;;5089274;28;20973;-70
2022/06/09 03:38:06;;;;;;;5.03;3.87;;;14.90;99.90;;;;;;5087265;28;20232;-70
2022/06/09 03:40:54;;;;;;;11.23;3.93;;;15.00;99.90;;;;;;5086474;28;20237;-70
2022/06/09 03:43:41;;;;;;;12.70;4.67;;;15.00;99.90;;;;;;5090733;28;20290;-69
2022/06/09 03:46:29;;;;;;;9.73;4.50;;;15.00;99.90;;;;;;5083462;28;20878;-69
2022/06/09 03:49:16;;;;;;;5.03;4.00;;;15.00;99.90;;;;;;5083827;28;20213;-70
2022/06/09 03:52:04;;;;;;;5.67;4.10;;;15.10;99.90;;;;;;5086731;28;20282;-70
2022/06/09 03:54:51;;;;;;;4.30;3.50;;;15.20;99.90;;;;;;5084269;28;20283;-70
2022/06/09 03:57:38;;;;;;;4.67;3.80;;;15.30;99.90;;;;;;5086483;28;20577;-69
2022/06/09 04:00:27;;;;;;;4.53;3.77;;;15.50;99.90;;;;;;5082455;28;20245;-70
2022/06/09 04:03:15;;;;;;;5.33;3.67;;;15.60;99.90;;;;;;5085978;28;20294;-69
2022/06/09 04:06:02;;;;;;;9.33;4.07;;;15.60;99.90;;;;;;5087631;28;20276;-69
2022/06/09 04:08:50;;;;;;;8.27;4.17;;;15.60;99.90;;;;;;5086812;28;20647;-69
2022/06/09 04:11:38;;;;;;;9.67;4.23;;;15.60;99.90;;;;;;5087425;28;20207;-70
2022/06/09 04:14:25;;;;;;;8.40;4.63;;;15.70;99.90;;;;;;5086087;28;20277;-70
2022/06/09 04:17:12;;;;;;;5.77;4.60;;;15.70;99.90;;;;;;5081679;28;20286;-70
2022/06/09 04:20:01;;;;;;;7.07;5.00;;;15.60;99.90;;;;;;5088587;28;20302;-69
2022/06/09 04:22:48;;;;;;;6.83;4.77;;;15.60;99.90;;;;;;5084925;28;20211;-69
2022/06/09 04:25:35;;;;;;;7.73;4.80;;;15.60;99.90;;;;;;5087441;28;20230;-70
2022/06/09 04:28:22;;;;;;;7.50;5.57;;;15.70;99.90;;;;;;5082265;28;20570;-69
2022/06/09 04:31:10;;;;;;;7.57;5.93;;;15.80;99.90;;;;;;5083290;28;20671;-69
2022/06/09 04:33:57;;;;;;;10.67;7.37;;;16.00;99.90;;;;;;5086603;28;21559;-70
2022/06/09 04:36:45;;;;;;;11.47;8.27;;;16.10;99.90;;;;;;5092832;28;20601;-70
2022/06/09 04:39:32;;;;;;;15.33;9.13;;;16.30;99.90;;;;;;5087750;28;20711;-70
2022/06/09 04:42:19;;;;;;;16.17;9.60;;;16.40;99.90;;;;;;5089043;28;20227;-70
2022/06/09 04:45:07;;;;;;;16.97;11.43;;;16.50;99.90;;;;;;5086031;28;20263;-70
2022/06/09 04:47:54;;;;;;;17.07;9.60;;;16.70;99.90;;;;;;5084611;28;20663;-70
2022/06/09 04:50:42;;;;;;;15.23;9.53;;;16.80;99.90;;;;;;5084737;28;20208;-70
2022/06/09 04:53:30;;;;;;;13.83;10.70;;;16.90;99.90;;;;;;5086809;28;20235;-70
2022/06/09 04:56:18;;;;;;;24.30;15.57;;;17.10;99.90;;;;;;5084437;28;20199;-70
2022/06/09 04:59:05;;;;;;;21.63;14.63;;;17.30;99.90;;;;;;5085191;28;20200;-70
2022/06/09 05:01:53;;;;;;;35.60;22.87;;;17.30;99.90;;;;;;5084168;28;20214;-70
2022/06/09 05:04:40;;;;;;;33.87;23.40;;;17.50;99.90;;;;;;5085776;28;20358;-70
2022/06/09 05:07:27;;;;;;;39.07;24.63;;;17.70;99.90;;;;;;5084192;28;20214;-70
2022/06/09 05:10:16;;;;;;;33.63;24.40;;;17.90;99.90;;;;;;5077874;28;20197;-70
2022/06/09 05:13:05;;;;;;;36.23;23.60;;;18.00;99.90;;;;;;5087377;28;20548;-70
2022/06/09 05:15:54;;;;;;;37.33;24.63;;;18.10;99.90;;;;;;5084960;28;20657;-70
2022/06/09 05:18:41;;;;;;;33.03;24.10;;;18.20;99.90;;;;;;5084358;28;20731;-70
2022/06/09 05:21:28;;;;;;;28.47;20.63;;;18.40;99.90;;;;;;5083899;28;20623;-70
2022/06/09 05:24:15;;;;;;;27.03;18.70;;;18.30;99.90;;;;;;5082793;28;20237;-70
2022/06/09 05:27:04;;;;;;;25.10;18.07;;;18.20;99.90;;;;;;5084926;28;20222;-70
2022/06/09 05:29:51;;;;;;;31.57;18.10;;;18.40;99.90;;;;;;5084690;28;20200;-70
2022/06/09 05:32:38;;;;;;;26.53;19.27;;;18.30;99.90;;;;;;5083458;28;20203;-70
2022/06/09 05:35:25;;;;;;;24.87;16.67;;;18.40;99.90;;;;;;5092066;28;20191;-70
2022/06/09 05:47:28;;;;;;;17.73;11.17;;;17.90;99.90;;;;;;5087850;28;20291;-70
2022/06/09 05:50:15;;;;;;;14.03;10.57;;;17.70;99.90;;;;;;5087390;28;20543;-69
2022/06/09 05:53:02;;;;;;;12.90;11.00;;;17.80;99.90;;;;;;5089729;28;20238;-69
2022/06/09 05:55:49;;;;;;;16.27;11.30;;;18.10;99.90;;;;;;5087513;28;20288;-69
2022/06/09 05:58:37;;;;;;;15.63;11.40;;;17.90;99.90;;;;;;5086674;28;20775;-70
2022/06/09 06:01:25;;;;;;;13.63;10.83;;;18.00;99.90;;;;;;5084317;28;20252;-69
2022/06/09 06:04:12;;;;;;;13.80;10.97;;;18.10;99.90;;;;;;5084221;28;20286;-69
2022/06/09 06:06:59;;;;;;;14.33;11.53;;;18.00;99.90;;;;;;5084147;28;20203;-69
2022/06/09 06:09:46;;;;;;;13.03;11.10;;;18.00;99.90;;;;;;5086506;28;20559;-69
2022/06/09 06:12:33;;;;;;;17.27;12.33;;;17.90;99.90;;;;;;5091494;28;20197;-69
2022/06/09 06:15:21;;;;;;;15.60;12.17;;;17.70;99.90;;;;;;5088913;28;20778;-68
2022/06/09 06:18:09;;;;;;;15.33;12.03;;;17.60;99.90;;;;;;5090238;28;20203;-68
2022/06/09 06:20:56;;;;;;;16.27;12.13;;;17.70;99.90;;;;;;5083245;28;20247;-69
2022/06/09 06:23:44;;;;;;;17.07;13.00;;;17.70;99.90;;;;;;5082433;28;20249;-69
2022/06/09 06:26:31;;;;;;;18.57;13.30;;;17.70;99.90;;;;;;5080826;28;20283;-69
2022/06/09 06:29:21;;;;;;;25.53;13.80;;;17.70;99.90;;;;;;5082259;28;20310;-69
2022/06/09 06:32:09;;;;;;;21.27;14.63;;;17.80;99.90;;;;;;5084564;28;20519;-69
2022/06/09 06:34:57;;;;;;;23.00;14.77;;;17.90;99.90;;;;;;5080889;28;20263;-69
2022/06/09 06:37:44;;;;;;;21.80;14.30;;;17.80;99.90;;;;;;5093153;28;20272;-69
2022/06/09 06:40:32;;;;;;;18.57;14.17;;;17.80;99.90;;;;;;5083121;28;20223;-70
2022/06/09 06:43:19;;;;;;;23.30;14.40;;;18.10;99.90;;;;;;5096284;28;20196;-70
2022/06/09 06:46:06;;;;;;;23.73;15.73;;;18.30;99.90;;;;;;5089250;28;20348;-69
2022/06/09 06:48:55;;;;;;;19.57;13.87;;;18.70;99.90;;;;;;5086896;28;20206;-70
2022/06/09 06:51:44;;;;;;;23.03;15.00;;;18.90;99.90;;;;;;5090566;28;20257;-69
2022/06/09 06:54:31;;;;;;;25.53;15.97;;;19.00;99.90;;;;;;5086593;28;20210;-69
2022/06/09 06:57:18;;;;;;;20.93;15.20;;;19.30;99.90;;;;;;5083371;28;20292;-70
2022/06/09 07:00:06;;;;;;;20.87;15.10;;;19.30;99.90;;;;;;5084571;28;20721;-69
2022/06/09 07:02:53;;;;;;;21.40;14.97;;;19.40;99.90;;;;;;5085757;28;20230;-70
2022/06/09 07:05:41;;;;;;;19.47;13.73;;;19.60;99.90;;;;;;5086141;28;20673;-70
2022/06/09 07:08:29;;;;;;;21.33;14.23;;;19.80;99.90;;;;;;5082924;28;20222;-69
2022/06/09 07:11:16;;;;;;;17.70;13.67;;;20.00;99.90;;;;;;5088039;28;20972;-69
2022/06/09 07:14:04;;;;;;;18.40;13.27;;;20.20;99.90;;;;;;5086239;28;20192;-69
2022/06/09 07:16:52;;;;;;;22.30;13.23;;;20.50;99.90;;;;;;5079239;28;20204;-69
2022/06/09 07:19:39;;;;;;;29.37;17.63;;;20.90;99.90;;;;;;5089054;28;20195;-69
2022/06/09 07:22:26;;;;;;;33.07;19.60;;;20.70;99.90;;;;;;5084694;28;20341;-69
2022/06/09 07:25:15;;;;;;;32.70;20.70;;;20.10;99.90;;;;;;5084515;28;20221;-69
2022/06/09 07:28:03;;;;;;;28.10;19.00;;;20.00;99.90;;;;;;5087917;28;20257;-70
2022/06/09 07:30:50;;;;;;;26.63;17.67;;;20.40;99.90;;;;;;5088037;28;20206;-69
2022/06/09 07:33:38;;;;;;;26.07;18.20;;;20.00;99.90;;;;;;5078222;28;20674;-69
2022/06/09 07:36:26;;;;;;;31.37;19.17;;;19.90;99.90;;;;;;5082564;28;20211;-69
2022/06/09 07:39:13;;;;;;;24.83;17.57;;;20.00;99.90;;;;;;5084485;28;20223;-69
2022/06/09 07:42:02;;;;;;;26.90;19.37;;;20.00;99.90;;;;;;5086492;28;20653;-69
2022/06/09 07:44:49;;;;;;;31.00;20.87;;;20.20;99.90;;;;;;5086893;28;20200;-69
2022/06/09 07:47:37;;;;;;;33.23;21.57;;;20.50;99.90;;;;;;5082479;28;20271;-69
2022/06/09 07:50:24;;;;;;;35.70;24.23;;;20.10;99.90;;;;;;5084347;28;20196;-69
2022/06/09 07:53:11;;;;;;;36.77;24.77;;;20.70;99.90;;;;;;5086385;28;20310;-69
2022/06/09 07:55:58;;;;;;;39.33;24.93;;;20.60;99.90;;;;;;5081582;28;20345;-69
2022/06/09 07:58:46;;;;;;;40.67;25.63;;;20.90;99.90;;;;;;5082215;28;20681;-69
2022/06/09 08:01:34;;;;;;;37.10;25.27;;;20.90;99.90;;;;;;5068015;28;20294;-69
2022/06/09 08:04:21;;;;;;;41.33;24.77;;;21.20;99.90;;;;;;5068083;28;20296;-70
2022/06/09 08:07:08;;;;;;;41.30;26.90;;;21.00;99.90;;;;;;5066325;28;20208;-69
2022/06/09 08:09:55;;;;;;;39.00;25.33;;;20.60;99.90;;;;;;5063103;28;20315;-69
2022/06/09 08:12:45;;;;;;;37.40;24.53;;;20.50;99.90;;;;;;5067049;28;20196;-69
2022/06/09 08:15:34;;;;;;;40.70;24.13;;;20.70;99.90;;;;;;5069551;28;20196;-70
2022/06/09 08:18:21;;;;;;;34.27;23.40;;;21.10;99.90;;;;;;5061954;28;20212;-70
2022/06/09 08:21:08;;;;;;;35.03;23.47;;;21.30;99.90;;;;;;5063123;28;20287;-70
2022/06/09 08:23:55;;;;;;;35.27;23.13;;;21.50;99.90;;;;;;5065179;28;20259;-69
2022/06/09 08:26:42;;;;;;;40.63;24.43;;;21.30;99.90;;;;;;5067781;28;20322;-70
2022/06/09 08:29:30;;;;;;;35.37;23.67;;;21.40;99.90;;;;;;5067523;28;20196;-70
2022/06/09 08:32:18;;;;;;;35.07;23.33;;;21.60;99.90;;;;;;5062371;28;20201;-70
2022/06/09 08:35:07;;;;;;;30.97;21.47;;;21.50;99.90;;;;;;5062309;28;20215;-70
2022/06/09 08:37:54;;;;;;;34.17;22.50;;;21.90;99.90;;;;;;5067505;28;20239;-70
2022/06/09 08:40:44;;;;;;;37.97;22.90;;;21.70;99.90;;;;;;5063404;28;20332;-69
2022/06/09 08:43:34;;;;;;;34.10;23.33;;;21.60;99.90;;;;;;5065694;28;20200;-69
2022/06/09 08:46:25;;;;;;;35.00;23.47;;;21.70;99.90;;;;;;5063642;28;20215;-70
2022/06/09 08:49:24;;;;;;;34.60;23.73;;;21.60;99.90;;;;;;5062367;28;20885;-70
2022/06/09 08:52:16;;;;;;;38.17;23.83;;;21.40;99.90;;;;;;5061988;28;20679;-69
2022/06/09 08:55:08;;;;;;;37.73;23.03;;;21.10;99.90;;;;;;5066239;28;20224;-69
2022/06/09 08:57:58;;;;;;;36.77;23.93;;;21.50;99.90;;;;;;5062427;28;20230;-69
2022/06/09 09:00:47;;;;;;;36.40;22.07;;;22.50;99.90;;;;;;5064406;28;20236;-70
2022/06/09 09:03:36;;;;;;;33.55;22.42;;;22.40;99.90;;;;;;5063663;28;20303;-69
2022/06/09 09:06:27;;;;;;;33.00;20.95;;;22.50;99.90;;;;;;5064140;28;20209;-69
2022/06/09 09:09:15;;;;;;;34.42;21.55;;;22.70;99.90;;;;;;5071610;28;20199;-69
2022/06/09 09:12:06;;;;;;;28.17;20.85;;;22.50;99.90;;;;;;5076155;28;20731;-69
2022/06/09 09:14:56;;;;;;;30.25;20.75;;;22.50;99.90;;;;;;5071548;28;20704;-69
2022/06/09 09:17:47;;;;;;;33.88;20.85;;;22.40;99.90;;;;;;5070145;28;20326;-69
2022/06/09 09:20:36;;;;;;;32.22;19.60;;;23.30;99.90;;;;;;5071695;28;20196;-69
2022/06/09 09:23:27;;;;;;;28.77;20.88;;;23.80;99.90;;;;;;5076821;28;20746;-69
2022/06/09 09:26:16;;;;;;;27.42;19.90;;;24.40;99.90;;;;;;5079157;28;20203;-70
2022/06/09 09:29:06;;;;;;;34.40;19.17;;;24.40;99.90;;;;;;5073738;28;20204;-70
2022/06/09 09:31:55;;;;;;;25.45;17.88;;;24.00;99.90;;;;;;5073309;28;20655;-69
2022/06/09 09:34:43;;;;;;;26.23;18.25;;;24.30;99.90;;;;;;5082986;28;20226;-69
2022/06/09 09:37:35;;;;;;;24.48;17.55;;;23.80;99.90;;;;;;5071880;28;20188;-69
2022/06/09 09:40:30;;;;;;;23.70;17.38;;;23.80;99.90;;;;;;5073386;28;20201;-69
2022/06/09 09:43:19;;;;;;;20.92;15.63;;;24.20;99.90;;;;;;5068650;28;20597;-69
2022/06/09 09:46:09;;;;;;;25.63;15.70;;;24.80;99.90;;;;;;5073536;28;20239;-68
2022/06/09 09:48:57;;;;;;;19.92;14.65;;;24.30;99.90;;;;;;5070230;28;20279;-69
2022/06/09 09:51:45;;;;;;;22.33;15.65;;;24.10;99.90;;;;;;5067947;28;20234;-69
2022/06/09 09:54:33;;;;;;;25.35;15.30;;;23.90;99.90;;;;;;5072108;28;20224;-69
2022/06/09 09:57:22;;;;;;;18.17;14.02;;;24.30;99.90;;;;;;5069684;28;21152;-69
2022/06/09 10:00:24;;;;;;;19.45;14.73;;;24.60;99.90;;;;;;5074658;28;20606;-69
2022/06/09 10:09:31;;;;;;;35.53;22.00;;;24.20;99.90;;;;;;5078457;28;20199;-69
2022/06/09 10:12:32;;;;;;;30.85;21.25;;;24.60;99.90;;;;;;5069399;28;20335;-69
2022/06/09 10:15:19;;;;;;;33.25;21.02;;;25.40;99.90;;;;;;5074874;28;20619;-69
2022/06/09 10:18:12;;;;;;;32.08;21.48;;;25.00;99.90;;;;;;5070618;28;20276;-69
2022/06/09 10:21:06;;;;;;;27.73;18.80;;;24.30;99.90;;;;;;5069263;28;20204;-69
2022/06/09 10:23:55;;;;;;;30.48;19.42;;;25.80;99.90;;;;;;5069507;28;20216;-70
2022/06/09 10:26:42;;;;;;;29.73;18.67;;;26.00;99.90;;;;;;5072656;28;20280;-69
2022/06/09 10:29:36;;;;;;;30.95;19.27;;;25.80;99.90;;;;;;5074283;28;20207;-69
2022/06/09 10:32:25;;;;;;;24.85;17.40;;;26.20;99.90;;;;;;5076474;28;20570;-69
2022/06/09 10:35:15;;;;;;;25.85;17.42;;;26.10;99.90;;;;;;5072065;28;20283;-69
2022/06/09 10:38:04;;;;;;;27.17;17.50;;;25.80;99.90;;;;;;5064637;28;20275;-69
2022/06/09 10:40:55;;;;;;;27.40;16.08;;;25.40;99.90;;;;;;5070497;28;20208;-69
2022/06/09 10:43:45;;;;;;;23.58;16.23;;;26.00;99.90;;;;;;5071512;28;20224;-69
2022/06/09 10:46:38;;;;;;;23.40;16.20;;;25.30;99.90;;;;;;5071298;28;20253;-69
2022/06/09 10:55:39;;;;;;;35.67;20.58;;;25.60;99.90;;;;;;5070602;28;20221;-69
2022/06/09 10:58:29;;;;;;;30.75;19.83;;;25.60;99.90;;;;;;5074643;28;20380;-69
2022/06/09 11:01:19;;;;;;;32.72;21.48;;;25.10;99.90;;;;;;5086591;28;20357;-69
2022/06/09 11:04:12;;;;;;;32.97;19.40;;;25.20;99.90;;;;;;5084678;28;20726;-69
2022/06/09 11:07:11;;;;;;;28.30;19.05;;;26.20;99.90;;;;;;5071784;28;20207;-69
2022/06/09 11:10:03;;;;;;;33.63;20.10;;;26.60;99.90;;;;;;5067941;28;20208;-69
2022/06/09 11:12:57;;;;;;;32.30;20.38;;;26.40;99.90;;;;;;5070452;28;20250;-70
2022/06/09 11:15:47;;;;;;;29.27;19.00;;;26.40;99.90;;;;;;5065439;28;20288;-69
2022/06/09 11:18:37;;;;;;;36.70;20.48;;;25.90;99.90;;;;;;5067749;28;20201;-69
2022/06/09 11:21:29;;;;;;;33.63;20.15;;;26.20;99.90;;;;;;5069364;28;20246;-69
2022/06/09 11:24:25;;;;;;;30.10;18.45;;;26.30;99.90;;;;;;5067173;28;20722;-69
2022/06/09 11:27:19;;;;;;;27.17;17.70;;;26.60;99.90;;;;;;5068598;28;20254;-70
2022/06/09 11:30:19;;;;;;;27.42;17.45;;;27.60;99.90;;;;;;5067788;28;20289;-69
2022/06/09 11:33:11;;;;;;;22.35;16.48;;;27.50;99.90;;;;;;5066631;28;20242;-69
2022/06/09 11:36:00;;;;;;;24.70;15.93;;;27.50;99.90;;;;;;5066977;28;20208;-69
2022/06/09 11:38:53;;;;;;;25.27;17.65;;;27.00;99.90;;;;;;5065279;28;20228;-69
2022/06/09 11:41:42;;;;;;;22.38;14.60;;;27.60;94.20;;;;;;5064118;28;20195;-69
2022/06/09 11:44:30;;;;;;;19.08;14.20;;;27.50;99.90;;;;;;5062032;28;20215;-69
2022/06/09 11:47:18;;;;;;;20.08;14.85;;;27.50;99.90;;;;;;5069332;28;20239;-69
2022/06/09 11:50:07;;;;;;;23.17;15.40;;;27.90;99.90;;;;;;5061237;28;20197;-69
2022/06/09 11:52:55;;;;;;;21.48;15.27;;;27.50;95.80;;;;;;5065857;28;20226;-69
2022/06/09 11:56:00;;;;;;;20.27;15.13;;;27.70;99.90;;;;;;5064037;28;20678;-69
2022/06/09 11:58:48;;;;;;;25.50;15.27;;;27.50;99.60;;;;;;5062939;28;20593;-69
2022/06/09 12:02:08;;;;;;;19.02;13.70;;;26.90;99.90;;;;;;5054076;28;20232;-69
2022/06/09 12:05:14;;;;;;;18.65;14.10;;;27.90;93.90;;;;;;5063462;28;20299;-68
2022/06/09 12:08:23;;;;;;;24.55;13.27;;;26.60;99.90;;;;;;5064343;28;20681;-68
2022/06/09 12:11:18;;;;;;;16.27;12.68;;;27.70;88.60;;;;;;5065587;28;20675;-68
2022/06/09 12:14:10;;;;;;;16.67;12.85;;;25.80;96.00;;;;;;5064797;28;20197;-67
2022/06/09 12:17:08;;;;;;;22.98;13.27;;;25.20;97.50;;;;;;5068044;28;20285;-67
2022/06/09 12:19:57;;;;;;;16.42;12.55;;;24.90;99.90;;;;;;5063465;28;20201;-67
2022/06/09 12:22:49;;;;;;;19.52;13.23;;;25.70;99.90;;;;;;5065952;28;20878;-67
2022/06/09 12:25:37;;;;;;;17.08;12.60;;;26.40;99.90;;;;;;5060354;28;20224;-67
2022/06/09 12:28:45;;;;;;;27.17;14.88;;;26.30;96.70;;;;;;5065691;28;20230;-68
2022/06/09 12:31:33;;;;;;;22.52;15.90;;;26.20;99.90;;;;;;5061390;28;20314;-67
2022/06/09 12:34:21;;;;;;;20.58;15.23;;;26.80;99.90;;;;;;5075103;28;20187;-68
2022/06/09 12:37:14;;;;;;;23.63;14.63;;;27.20;98.10;;;;;;5065079;28;20219;-68
2022/06/09 12:40:02;;;;;;;20.55;13.65;;;27.60;98.10;;;;;;5067820;28;20298;-68
2022/06/09 12:42:51;;;;;;;19.50;13.95;;;26.10;99.90;;;;;;5069137;28;20219;-68
2022/06/09 12:45:39;;;;;;;17.05;13.38;;;25.30;99.90;;;;;;5071093;28;20241;-67
2022/06/09 12:48:28;;;;;;;18.42;13.23;;;25.00;99.90;;;;;;5069286;28;20585;-67
2022/06/09 12:51:19;;;;;;;21.70;14.05;;;24.90;99.90;;;;;;5063365;28;20224;-67
2022/06/09 12:54:08;;;;;;;20.60;14.18;;;24.40;99.90;;;;;;5063818;28;20569;-67
2022/06/09 12:56:59;;;;;;;16.90;14.00;;;24.70;99.90;;;;;;5064849;28;20884;-67
2022/06/09 12:59:46;;;;;;;19.80;14.60;;;24.30;99.90;;;;;;5064530;28;20239;-67
2022/06/09 13:02:37;;;;;;;20.58;15.32;;;23.90;99.90;;;;;;5059798;28;20273;-67
2022/06/09 13:05:27;;;;;;;18.17;14.05;;;24.30;99.90;;;;;;5065164;28;20205;-66
2022/06/09 13:08:16;;;;;;;20.38;14.80;;;24.20;99.90;;;;;;5064303;28;20668;-67
2022/06/09 13:11:05;;;;;;;18.20;14.88;;;24.00;99.90;;;;;;5064366;28;20666;-67
2022/06/09 13:13:52;;;;;;;22.00;14.63;;;24.00;99.90;;;;;;5061496;28;20275;-67
2022/06/09 13:16:43;;;;;;;17.60;14.52;;;23.80;99.90;;;;;;5066715;28;20283;-66
2022/06/09 13:19:31;;;;;;;20.17;15.02;;;23.60;99.90;;;;;;5062519;28;20196;-66
2022/06/09 13:22:18;;;;;;;20.40;14.88;;;23.30;99.90;;;;;;5065437;28;20588;-67
2022/06/09 13:25:06;;;;;;;21.48;15.75;;;23.20;99.90;;;;;;5058726;28;20254;-67
2022/06/09 13:27:53;;;;;;;21.30;15.20;;;23.00;99.90;;;;;;5063800;28;20205;-67
2022/06/09 13:30:42;;;;;;;21.50;16.90;;;22.90;99.90;;;;;;5061824;28;20288;-67
2022/06/09 13:33:32;;;;;;;23.02;16.45;;;23.00;99.90;;;;;;5070560;28;20197;-68
2022/06/09 13:36:26;;;;;;;22.90;16.15;;;22.90;99.90;;;;;;5065782;28;20192;-68
2022/06/09 13:39:34;;;;;;;23.80;16.40;;;22.90;99.90;;;;;;5065724;28;20758;-68
2022/06/09 13:42:24;;;;;;;20.63;16.40;;;22.60;99.90;;;;;;5064698;28;20208;-68
2022/06/09 13:45:16;;;;;;;19.67;16.10;;;22.70;99.90;;;;;;5065179;28;20675;-68
2022/06/09 13:48:13;;;;;;;25.80;17.05;;;23.00;99.90;;;;;;5065105;28;20295;-68
2022/06/09 13:51:11;;;;;;;23.33;16.70;;;23.20;99.90;;;;;;5066178;28;20204;-68
2022/06/09 13:54:10;;;;;;;26.23;16.40;;;23.50;99.90;;;;;;5064692;28;20319;-68
2022/06/09 13:56:58;;;;;;;22.15;16.45;;;23.60;99.90;;;;;;5065506;28;20338;-69
2022/06/09 13:59:45;;;;;;;24.58;16.38;;;23.60;99.90;;;;;;5068609;28;20235;-69
2022/06/09 14:02:43;;;;;;;19.38;16.05;;;23.60;99.90;;;;;;5064954;28;20200;-68
2022/06/09 14:05:31;;;;;;;24.45;16.85;;;23.80;99.90;;;;;;5065925;28;20200;-69
2022/06/09 14:08:18;;;;;;;26.52;16.25;;;24.30;99.90;;;;;;5066034;28;20193;-69
2022/06/09 14:11:06;;;;;;;22.80;15.82;;;24.90;99.90;;;;;;5067211;28;20750;-69
2022/06/09 14:13:55;;;;;;;23.58;15.35;;;25.30;99.90;;;;;;5065046;28;20276;-68
2022/06/09 14:16:44;;;;;;;22.27;14.77;;;25.00;99.90;;;;;;5064608;28;20239;-69
2022/06/09 14:19:31;;;;;;;23.20;16.17;;;25.40;99.90;;;;;;5068939;28;20211;-69
2022/06/09 14:22:19;;;;;;;23.65;15.80;;;25.80;99.90;;;;;;5068045;28;20201;-69
2022/06/09 14:25:07;;;;;;;21.75;14.88;;;26.10;99.90;;;;;;5067853;28;20588;-69
2022/06/09 14:27:56;;;;;;;23.42;14.32;;;26.80;99.90;;;;;;5060278;28;20569;-70
2022/06/09 14:30:43;;;;;;;22.00;14.20;;;27.30;99.90;;;;;;5064220;28;20211;-69
2022/06/09 14:33:30;;;;;;;18.88;13.52;;;27.50;99.90;;;;;;5070875;28;20283;-70
2022/06/09 14:36:18;;;;;;;19.30;13.43;;;27.80;99.90;;;;;;5071097;28;20207;-69
2022/06/09 14:39:07;;;;;;;16.77;11.80;;;27.20;93.90;;;;;;5069185;28;20208;-68
2022/06/09 14:41:54;;;;;;;20.40;11.35;;;26.50;93.80;;;;;;5068630;28;20590;-69
2022/06/09 14:44:43;;;;;;;15.57;11.85;;;27.30;90.30;;;;;;5069389;28;20261;-69